Time;durP1;ratioP1;P1;durP2;ratioP2;P2;SDS_P1;SDS_P2;PMS_P1;PMS_P2;Temp;Humidity;BMP_temperature;BMP_pressure;BME280_temperature;BME280_humidity;BME280_pressure;Samples;Min_cycle;Max_cycle;Signal;HPM_P1;HPM_P2
2021/07/04 00:01:03;;;;;;;3.38;3.08;;;18.60;99.90;;;;;;5057869;28;20386;-79
2021/07/04 00:03:28;;;;;;;3.40;3.10;;;18.70;99.90;;;;;;5040302;28;20031;-79
2021/07/04 00:05:54;;;;;;;3.67;3.38;;;18.60;1.00;;;;;;5057226;28;20025;-79
2021/07/04 00:08:23;;;;;;;3.38;3.05;;;18.60;99.90;;;;;;5057409;28;20028;-80
2021/07/04 00:11:09;;;;;;;4.43;3.17;;;18.60;1.00;;;;;;5039312;28;20052;-80
2021/07/04 00:13:37;;;;;;;3.95;3.55;;;18.60;1.00;;;;;;5039760;28;20079;-81
2021/07/04 00:16:04;;;;;;;3.50;3.13;;;18.60;1.00;;;;;;5057463;28;20045;-80
2021/07/04 00:18:32;;;;;;;3.78;3.47;;;18.50;1.00;;;;;;5057058;28;20475;-80
2021/07/04 00:20:59;;;;;;;3.45;3.15;;;18.50;1.00;;;;;;5039049;28;20116;-79
2021/07/04 00:23:26;;;;;;;4.63;3.40;;;18.50;1.00;;;;;;5057345;28;20433;-80
2021/07/04 00:25:53;;;;;;;3.42;3.13;;;18.50;1.00;;;;;;5039230;28;20018;-80
2021/07/04 00:28:22;;;;;;;5.18;3.70;;;18.50;1.00;;;;;;5038945;28;20443;-79
2021/07/04 00:30:48;;;;;;;3.80;3.35;;;18.50;1.00;;;;;;5039624;28;20029;-81
2021/07/04 00:33:14;;;;;;;3.78;3.47;;;18.50;1.00;;;;;;5038849;28;20467;-80
2021/07/04 00:35:39;;;;;;;3.97;3.58;;;18.50;1.00;;;;;;5056635;28;20086;-80
2021/07/04 00:38:07;;;;;;;3.25;2.95;;;18.50;1.00;;;;;;5039280;28;20040;-81
2021/07/04 00:40:33;;;;;;;4.32;3.92;;;18.40;1.00;;;;;;5039568;28;20028;-79
2021/07/04 00:42:58;;;;;;;4.22;3.58;;;18.50;1.00;;;;;;5039799;28;20025;-80
2021/07/04 00:45:26;;;;;;;4.43;3.90;;;18.40;1.00;;;;;;5055147;28;20486;-80
2021/07/04 00:47:52;;;;;;;4.20;3.75;;;18.40;1.00;;;;;;5037189;28;20021;-80
2021/07/04 00:50:20;;;;;;;4.32;3.92;;;18.40;1.00;;;;;;5035958;28;20436;-79
2021/07/04 00:52:47;;;;;;;4.90;4.13;;;18.40;1.00;;;;;;5054930;28;20017;-80
2021/07/04 00:55:14;;;;;;;4.70;4.20;;;18.30;1.00;;;;;;5055151;28;20028;-80
2021/07/04 00:57:42;;;;;;;4.43;4.03;;;18.30;1.00;;;;;;5037211;28;20025;-80
2021/07/04 01:00:10;;;;;;;4.22;3.92;;;18.30;1.00;;;;;;5055505;28;20418;-78
2021/07/04 01:02:36;;;;;;;8.40;4.30;;;18.30;1.00;;;;;;5055216;28;20024;-79
2021/07/04 01:05:08;;;;;;;4.93;4.53;;;18.30;1.00;;;;;;5055587;28;20029;-79
2021/07/04 01:07:33;;;;;;;4.15;3.75;;;18.20;1.00;;;;;;5038147;28;20113;-78
2021/07/04 01:09:59;;;;;;;6.90;4.22;;;18.10;1.00;;;;;;5055546;28;20084;-79
2021/07/04 01:12:24;;;;;;;5.50;5.00;;;18.10;1.00;;;;;;5038225;28;20119;-80
2021/07/04 01:14:50;;;;;;;4.93;4.18;;;18.00;1.00;;;;;;5038568;28;20025;-79
2021/07/04 01:17:16;;;;;;;5.38;4.35;;;18.00;1.00;;;;;;5037271;28;20033;-79
2021/07/04 01:19:42;;;;;;;5.43;4.05;;;17.90;1.00;;;;;;5055877;28;20086;-80
2021/07/04 01:22:11;;;;;;;4.60;4.20;;;17.80;1.00;;;;;;5038386;28;20523;-80
2021/07/04 01:24:37;;;;;;;5.00;4.50;;;17.80;1.00;;;;;;5055830;28;20028;-80
2021/07/04 01:27:02;;;;;;;4.75;4.35;;;17.80;1.00;;;;;;5057020;28;20029;-80
2021/07/04 01:29:28;;;;;;;4.78;4.35;;;17.80;1.00;;;;;;5037725;28;20033;-80
2021/07/04 01:31:54;;;;;;;5.50;4.50;;;17.70;1.00;;;;;;5055584;28;20505;-80
2021/07/04 01:34:19;;;;;;;5.00;4.50;;;17.70;1.00;;;;;;5055801;28;20475;-81
2021/07/04 01:36:45;;;;;;;5.07;4.57;;;17.70;1.00;;;;;;5055295;28;20522;-81
2021/07/04 01:39:10;;;;;;;4.88;4.38;;;17.60;1.00;;;;;;5056097;28;20041;-80
2021/07/04 01:41:36;;;;;;;6.60;4.57;;;17.60;1.00;;;;;;5037936;28;20146;-79
2021/07/04 01:44:03;;;;;;;4.50;4.10;;;17.60;1.00;;;;;;5055673;28;20031;-81
2021/07/04 01:46:28;;;;;;;5.68;4.80;;;17.60;1.00;;;;;;5055500;28;20405;-81
2021/07/04 01:48:54;;;;;;;4.72;4.25;;;17.50;1.00;;;;;;5056128;28;20101;-81
2021/07/04 01:51:19;;;;;;;4.72;4.32;;;17.60;1.00;;;;;;5038606;28;20029;-79
2021/07/04 01:53:45;;;;;;;5.35;4.80;;;17.50;1.00;;;;;;5055463;28;20024;-79
2021/07/04 01:56:11;;;;;;;4.90;4.43;;;17.50;1.00;;;;;;5038335;28;20025;-81
2021/07/04 01:58:39;;;;;;;5.25;4.82;;;17.50;1.00;;;;;;5055814;28;20029;-79
2021/07/04 02:01:06;;;;;;;5.68;5.15;;;17.50;1.00;;;;;;5056233;28;20025;-81
2021/07/04 02:03:32;;;;;;;5.18;4.68;;;17.50;1.00;;;;;;5056970;28;20112;-80
2021/07/04 02:05:58;;;;;;;4.40;4.00;;;17.50;1.00;;;;;;5038082;28;20025;-80
2021/07/04 02:08:24;;;;;;;5.68;4.40;;;17.50;1.00;;;;;;5038096;28;20090;-80
2021/07/04 02:10:50;;;;;;;5.13;4.72;;;17.50;1.00;;;;;;5056819;28;20025;-80
2021/07/04 02:13:15;;;;;;;4.88;4.47;;;17.50;1.00;;;;;;5038561;28;20040;-80
2021/07/04 02:15:42;;;;;;;5.68;4.80;;;17.60;1.00;;;;;;5037367;28;20028;-80
2021/07/04 02:18:18;;;;;;;5.00;4.60;;;17.60;1.00;;;;;;5037536;28;20021;-81
2021/07/04 02:20:52;;;;;;;4.70;4.28;;;17.60;1.00;;;;;;5055260;28;20028;-80
2021/07/04 02:23:21;;;;;;;5.30;4.80;;;17.50;1.00;;;;;;5055154;28;20024;-79
2021/07/04 02:25:49;;;;;;;7.43;4.22;;;17.50;1.00;;;;;;5055675;28;20096;-81
2021/07/04 02:28:17;;;;;;;4.85;4.45;;;17.50;1.00;;;;;;5037131;28;20024;-79
2021/07/04 02:30:43;;;;;;;7.65;4.93;;;17.50;1.00;;;;;;5037295;28;20025;-79
2021/07/04 02:33:11;;;;;;;4.78;4.38;;;17.50;1.00;;;;;;5037306;28;20036;-81
2021/07/04 02:35:39;;;;;;;4.80;4.40;;;17.50;1.00;;;;;;5037396;28;20402;-81
2021/07/04 02:38:06;;;;;;;5.03;4.60;;;17.50;1.00;;;;;;5036948;28;20033;-79
2021/07/04 02:40:32;;;;;;;7.28;5.20;;;17.40;1.00;;;;;;5055833;28;20071;-80
2021/07/04 02:42:59;;;;;;;5.22;4.82;;;17.30;1.00;;;;;;5036958;28;20024;-79
2021/07/04 02:45:26;;;;;;;4.72;4.30;;;17.30;1.00;;;;;;5055908;28;20021;-80
2021/07/04 02:47:51;;;;;;;7.40;5.45;;;17.20;1.00;;;;;;5054832;28;20211;-80
2021/07/04 02:50:23;;;;;;;7.32;5.07;;;17.20;1.00;;;;;;5055127;28;20316;-80
2021/07/04 02:52:50;;;;;;;5.22;4.82;;;17.10;1.00;;;;;;5037074;28;20430;-80
2021/07/04 02:55:17;;;;;;;5.38;4.85;;;17.00;1.00;;;;;;5055295;28;20482;-79
2021/07/04 02:57:42;;;;;;;5.38;4.90;;;17.00;1.00;;;;;;5037077;28;20033;-79
2021/07/04 03:00:11;;;;;;;5.63;5.10;;;17.00;1.00;;;;;;5055094;28;20078;-80
2021/07/04 03:02:37;;;;;;;5.38;4.88;;;17.00;1.00;;;;;;5036938;28;20052;-81
2021/07/04 03:05:05;;;;;;;5.15;4.65;;;17.20;1.00;;;;;;5037910;28;20029;-82
2021/07/04 03:07:31;;;;;;;6.25;5.65;;;17.10;1.00;;;;;;5054388;28;20116;-79
2021/07/04 03:09:56;;;;;;;5.90;5.40;;;17.00;1.00;;;;;;5036567;28;20056;-80
2021/07/04 03:12:22;;;;;;;6.13;5.35;;;17.00;1.00;;;;;;5036968;28;20032;-79
2021/07/04 03:14:48;;;;;;;5.82;5.22;;;17.00;1.00;;;;;;5035357;28;20082;-81
2021/07/04 03:17:14;;;;;;;5.43;4.78;;;17.10;1.00;;;;;;5036112;28;20025;-78
2021/07/04 03:19:39;;;;;;;5.25;4.75;;;17.20;1.00;;;;;;5053571;28;20029;-80
2021/07/04 03:22:05;;;;;;;6.05;5.47;;;17.20;1.00;;;;;;5053542;28;20025;-79
2021/07/04 03:24:30;;;;;;;5.90;5.40;;;17.20;1.00;;;;;;5053019;28;20036;-79
2021/07/04 03:26:56;;;;;;;5.75;5.28;;;17.30;1.00;;;;;;5053230;28;20108;-79
2021/07/04 03:29:22;;;;;;;6.13;5.20;;;17.30;1.00;;;;;;5052694;28;20159;-78
2021/07/04 03:31:48;;;;;;;6.57;5.13;;;17.40;1.00;;;;;;5035062;28;20058;-80
2021/07/04 03:34:13;;;;;;;6.70;4.90;;;17.40;1.00;;;;;;5053296;28;20032;-79
2021/07/04 03:36:39;;;;;;;5.32;4.85;;;17.40;1.00;;;;;;5034721;28;20100;-82
2021/07/04 03:39:05;;;;;;;7.22;5.32;;;17.50;1.00;;;;;;5096766;22;20048;-71
2021/07/04 03:41:31;;;;;;;5.47;4.97;;;17.70;1.00;;;;;;5071566;28;20078;-70
2021/07/04 03:43:59;;;;;;;5.22;4.72;;;17.70;1.00;;;;;;5076727;28;20025;-72
2021/07/04 03:46:25;;;;;;;5.80;4.90;;;17.80;1.00;;;;;;5077344;28;20026;-70
2021/07/04 03:48:51;;;;;;;5.90;5.18;;;17.70;1.00;;;;;;5071577;28;20052;-71
2021/07/04 03:51:17;;;;;;;6.03;5.40;;;17.60;1.00;;;;;;5071748;28;20064;-71
2021/07/04 03:53:42;;;;;;;4.90;4.50;;;17.60;1.00;;;;;;5071347;28;20103;-72
2021/07/04 03:56:08;;;;;;;4.72;4.32;;;17.60;1.00;;;;;;5071574;28;20023;-73
2021/07/04 03:58:33;;;;;;;5.47;4.97;;;17.60;1.00;;;;;;5071314;28;20028;-72
2021/07/04 04:00:59;;;;;;;5.68;5.18;;;17.60;1.00;;;;;;5071547;28;20040;-72
2021/07/04 04:03:24;;;;;;;6.90;4.82;;;17.60;1.00;;;;;;5071455;28;20024;-71
2021/07/04 04:05:50;;;;;;;6.80;5.28;;;17.70;1.00;;;;;;5071278;28;20095;-71
2021/07/04 04:08:16;;;;;;;6.55;4.70;;;17.80;1.00;;;;;;5071297;28;20031;-71
2021/07/04 04:10:41;;;;;;;5.80;5.30;;;17.90;1.00;;;;;;5071461;28;20100;-72
2021/07/04 04:13:07;;;;;;;5.13;4.63;;;18.10;1.00;;;;;;5071351;28;20027;-72
2021/07/04 04:15:32;;;;;;;5.25;4.85;;;18.30;1.00;;;;;;5071256;28;20021;-72
2021/07/04 04:17:58;;;;;;;5.50;4.43;;;18.40;1.00;;;;;;5071022;28;20048;-72
2021/07/04 04:20:25;;;;;;;4.65;4.32;;;18.50;1.00;;;;;;5071201;28;20023;-72
2021/07/04 04:22:50;;;;;;;4.45;4.05;;;18.50;1.00;;;;;;5071108;28;20093;-71
2021/07/04 04:25:16;;;;;;;4.93;4.00;;;18.50;1.00;;;;;;5071565;28;20477;-72
2021/07/04 04:27:42;;;;;;;4.70;4.25;;;18.50;1.00;;;;;;5074399;28;20020;-71
2021/07/04 04:30:08;;;;;;;4.63;4.28;;;18.50;1.00;;;;;;5074826;28;20036;-71
2021/07/04 04:32:34;;;;;;;6.47;5.32;;;18.60;1.00;;;;;;5074658;28;20032;-72
2021/07/04 04:34:59;;;;;;;4.97;4.47;;;18.60;1.00;;;;;;5074478;28;20401;-72
2021/07/04 04:37:25;;;;;;;4.55;4.18;;;18.70;1.00;;;;;;5074211;28;20040;-72
2021/07/04 04:39:51;;;;;;;4.80;4.40;;;18.80;1.00;;;;;;5074438;28;20020;-73
2021/07/04 04:42:16;;;;;;;5.00;4.50;;;18.80;1.00;;;;;;5074394;28;20027;-72
2021/07/04 04:44:42;;;;;;;5.57;4.22;;;18.80;1.00;;;;;;5056328;28;20021;-71
2021/07/04 04:47:08;;;;;;;5.05;4.43;;;18.80;1.00;;;;;;5074256;28;20028;-71
2021/07/04 04:49:35;;;;;;;5.75;4.65;;;18.80;1.00;;;;;;5074356;28;20025;-72
2021/07/04 04:52:01;;;;;;;4.00;3.70;;;18.80;1.00;;;;;;5074101;28;20025;-72
2021/07/04 04:54:27;;;;;;;7.97;4.80;;;18.80;1.00;;;;;;5087282;28;20044;-71
2021/07/04 04:56:52;;;;;;;4.93;3.88;;;18.80;1.00;;;;;;5097154;28;20032;-72
2021/07/04 04:59:18;;;;;;;5.65;4.15;;;18.70;1.00;;;;;;5081652;28;20481;-70
2021/07/04 05:01:43;;;;;;;5.57;4.07;;;18.80;1.00;;;;;;5074205;28;20021;-72
2021/07/04 05:04:09;;;;;;;5.90;4.57;;;18.80;1.00;;;;;;5074058;28;20486;-71
2021/07/04 05:06:35;;;;;;;4.45;4.05;;;18.80;1.00;;;;;;5073828;28;20017;-71
2021/07/04 05:09:02;;;;;;;5.40;4.90;;;18.80;1.00;;;;;;5073859;28;20493;-72
2021/07/04 05:11:27;;;;;;;4.60;4.20;;;18.80;1.00;;;;;;5073857;28;20052;-71
2021/07/04 05:13:53;;;;;;;4.47;4.10;;;18.80;1.00;;;;;;5073807;28;20452;-71
2021/07/04 05:16:19;;;;;;;5.07;4.38;;;18.80;1.00;;;;;;5073516;28;20020;-71
2021/07/04 05:18:45;;;;;;;4.88;4.22;;;18.80;1.00;;;;;;5073297;28;20113;-71
2021/07/04 05:21:10;;;;;;;4.25;3.55;;;18.90;1.00;;;;;;5073545;28;20082;-70
2021/07/04 05:23:36;;;;;;;4.63;4.07;;;19.00;1.00;;;;;;5073515;28;20056;-71
2021/07/04 05:26:02;;;;;;;5.22;3.50;;;19.00;1.00;;;;;;5073333;28;20021;-72
2021/07/04 05:28:28;;;;;;;4.55;3.67;;;19.00;1.00;;;;;;5073349;28;20518;-72
2021/07/04 05:30:55;;;;;;;4.55;3.70;;;19.10;1.00;;;;;;5073814;28;20405;-72
2021/07/04 05:33:20;;;;;;;4.82;4.43;;;19.10;1.00;;;;;;5073505;28;20063;-72
2021/07/04 05:35:47;;;;;;;4.28;3.88;;;19.10;1.00;;;;;;5072902;28;20021;-72
2021/07/04 05:38:22;;;;;;;4.30;3.67;;;19.20;1.00;;;;;;5072894;28;20032;-72
2021/07/04 05:40:49;;;;;;;3.92;3.63;;;19.50;1.00;;;;;;5055072;28;20044;-72
2021/07/04 05:43:16;;;;;;;4.50;4.10;;;19.80;99.90;;;;;;5074723;28;20017;-70
2021/07/04 05:45:42;;;;;;;4.10;3.70;;;20.30;99.90;;;;;;5073666;28;20038;-70
2021/07/04 05:48:08;;;;;;;3.92;3.55;;;20.90;99.90;;;;;;5073929;28;20039;-70
2021/07/04 05:50:34;;;;;;;3.80;3.50;;;21.70;99.90;;;;;;5055176;28;20028;-71
2021/07/04 05:53:00;;;;;;;3.38;3.08;;;22.50;99.90;;;;;;5073110;28;20024;-71
2021/07/04 05:55:25;;;;;;;4.60;3.45;;;23.00;99.90;;;;;;5073483;28;20033;-71
2021/07/04 05:57:51;;;;;;;3.60;3.17;;;23.10;99.90;;;;;;5073085;28;20024;-71
2021/07/04 06:00:17;;;;;;;4.22;3.47;;;23.40;99.90;;;;;;5074300;28;20021;-71
2021/07/04 06:02:42;;;;;;;3.20;2.92;;;23.30;99.90;;;;;;5073056;28;20020;-71
2021/07/04 06:05:09;;;;;;;6.70;3.60;;;23.40;99.90;;;;;;5072551;28;20035;-71
2021/07/04 06:07:35;;;;;;;3.40;2.95;;;23.30;99.90;;;;;;5072629;28;20020;-71
2021/07/04 06:10:03;;;;;;;3.80;2.92;;;22.80;99.90;;;;;;5074972;28;20076;-72
2021/07/04 06:12:28;;;;;;;3.88;3.08;;;22.80;99.90;;;;;;5075207;28;20029;-71
2021/07/04 06:14:54;;;;;;;4.65;4.25;;;22.20;99.90;;;;;;5054788;28;20024;-71
2021/07/04 06:17:20;;;;;;;5.80;4.15;;;21.80;99.90;;;;;;5072479;28;20032;-71
2021/07/04 06:19:45;;;;;;;3.75;3.45;;;21.70;99.90;;;;;;5072444;28;20389;-71
2021/07/04 06:22:11;;;;;;;3.83;3.20;;;21.60;99.90;;;;;;5072711;28;20031;-71
2021/07/04 06:24:36;;;;;;;3.60;3.30;;;21.60;99.90;;;;;;5054694;28;20028;-72
2021/07/04 06:27:02;;;;;;;3.35;3.05;;;21.70;99.90;;;;;;5072709;28;20505;-71
2021/07/04 06:29:28;;;;;;;4.78;3.83;;;21.90;99.90;;;;;;5072814;28;20172;-73
2021/07/04 06:31:53;;;;;;;3.85;3.53;;;21.90;99.90;;;;;;5072844;28;20093;-71
2021/07/04 06:34:19;;;;;;;3.75;3.45;;;21.80;99.90;;;;;;5072339;28;20434;-71
2021/07/04 06:36:44;;;;;;;3.90;3.60;;;21.80;99.90;;;;;;5072544;28;20035;-71
2021/07/04 06:39:10;;;;;;;4.97;3.60;;;21.90;99.90;;;;;;5071984;28;20035;-71
2021/07/04 06:41:36;;;;;;;3.03;2.80;;;21.70;99.90;;;;;;5054385;28;20029;-71
2021/07/04 06:44:02;;;;;;;4.22;3.83;;;21.70;99.90;;;;;;5072485;28;20107;-72
2021/07/04 06:46:28;;;;;;;6.82;5.07;;;21.80;99.90;;;;;;5072602;28;20474;-70
2021/07/04 06:48:53;;;;;;;3.65;3.35;;;21.70;99.90;;;;;;5071277;28;20062;-72
2021/07/04 06:51:19;;;;;;;6.25;4.13;;;22.20;99.90;;;;;;5072184;28;20056;-70
2021/07/04 06:53:45;;;;;;;4.15;3.85;;;22.10;99.90;;;;;;5072266;28;20401;-71
2021/07/04 06:56:10;;;;;;;3.65;3.33;;;21.90;99.90;;;;;;5072558;28;20028;-72
2021/07/04 06:58:36;;;;;;;4.38;3.60;;;22.00;99.90;;;;;;5072127;28;20027;-71
2021/07/04 07:01:03;;;;;;;3.65;3.38;;;21.80;99.90;;;;;;5072221;28;20090;-72
2021/07/04 07:03:28;;;;;;;5.80;3.42;;;22.00;99.90;;;;;;5056188;28;20417;-72
2021/07/04 07:05:54;;;;;;;3.63;3.33;;;22.40;99.90;;;;;;5075017;28;20031;-71
2021/07/04 07:08:19;;;;;;;3.67;3.38;;;22.80;99.90;;;;;;5075270;28;20055;-71
2021/07/04 07:10:45;;;;;;;6.00;3.67;;;23.00;99.90;;;;;;5075216;28;20032;-72
2021/07/04 07:13:10;;;;;;;5.13;3.83;;;22.40;99.90;;;;;;5074993;28;20036;-72
2021/07/04 07:15:36;;;;;;;3.72;3.42;;;22.40;99.90;;;;;;5074771;28;20035;-74
2021/07/04 07:18:02;;;;;;;3.63;3.33;;;22.20;99.90;;;;;;5075344;28;20024;-72
2021/07/04 07:20:27;;;;;;;3.70;3.40;;;22.40;99.90;;;;;;5073998;28;20056;-72
2021/07/04 07:22:53;;;;;;;3.55;3.28;;;22.30;99.90;;;;;;5072920;28;20012;-72
2021/07/04 07:25:19;;;;;;;7.35;4.95;;;22.20;99.90;;;;;;5072936;28;20478;-73
2021/07/04 07:27:44;;;;;;;5.45;3.83;;;22.60;99.90;;;;;;5073101;28;20020;-72
2021/07/04 07:30:12;;;;;;;4.72;4.20;;;22.50;99.90;;;;;;5076742;28;20021;-72
2021/07/04 07:32:39;;;;;;;3.65;3.35;;;22.40;99.90;;;;;;5059124;28;20032;-71
2021/07/04 07:35:06;;;;;;;4.07;3.70;;;22.40;99.90;;;;;;5078209;28;20032;-72
2021/07/04 07:37:32;;;;;;;6.13;3.47;;;22.50;99.90;;;;;;5078979;28;20025;-72
2021/07/04 07:39:58;;;;;;;3.60;3.13;;;22.60;99.90;;;;;;5076356;28;20069;-74
2021/07/04 07:42:23;;;;;;;4.22;3.70;;;22.60;99.90;;;;;;5081903;28;20029;-71
2021/07/04 07:44:49;;;;;;;3.97;3.60;;;22.70;99.90;;;;;;5074657;28;20048;-72
2021/07/04 07:47:14;;;;;;;4.25;3.85;;;22.90;99.90;;;;;;5071849;28;20039;-72
2021/07/04 07:49:40;;;;;;;4.00;3.70;;;23.20;99.90;;;;;;5071606;28;20029;-72
2021/07/04 07:52:06;;;;;;;3.85;3.50;;;23.50;99.90;;;;;;5071668;28;20474;-71
2021/07/04 07:54:31;;;;;;;4.20;3.83;;;23.50;99.90;;;;;;5072117;28;20089;-72
2021/07/04 07:56:57;;;;;;;5.10;3.70;;;23.90;99.90;;;;;;5071510;28;20056;-70
2021/07/04 07:59:23;;;;;;;4.70;3.38;;;24.00;99.90;;;;;;5054300;28;20036;-71
2021/07/04 08:01:49;;;;;;;3.70;3.40;;;24.20;99.90;;;;;;5075551;28;20024;-71
2021/07/04 08:04:15;;;;;;;4.03;3.63;;;24.30;99.90;;;;;;5075445;28;20021;-71
2021/07/04 08:06:41;;;;;;;4.75;3.67;;;24.20;99.90;;;;;;5088779;28;20389;-70
2021/07/04 08:09:06;;;;;;;3.85;3.55;;;24.40;99.90;;;;;;5068213;28;20017;-71
2021/07/04 08:11:32;;;;;;;4.88;3.55;;;24.50;99.90;;;;;;5076711;28;20490;-71
2021/07/04 08:13:58;;;;;;;4.82;4.43;;;23.90;99.90;;;;;;5075443;28;20024;-72
2021/07/04 08:16:24;;;;;;;4.45;3.50;;;23.70;99.90;;;;;;5075561;28;20059;-71
2021/07/04 08:18:50;;;;;;;4.55;4.15;;;23.80;99.90;;;;;;5075270;28;20021;-72
2021/07/04 08:21:15;;;;;;;3.80;3.38;;;24.20;99.90;;;;;;5075923;28;20020;-72
2021/07/04 08:23:41;;;;;;;5.63;3.30;;;24.50;99.90;;;;;;5076982;28;20048;-73
2021/07/04 08:26:06;;;;;;;3.70;3.28;;;24.50;99.90;;;;;;5078380;28;20021;-72
2021/07/04 08:28:33;;;;;;;4.22;3.80;;;24.50;99.90;;;;;;5077040;28;20027;-72
2021/07/04 08:30:58;;;;;;;3.75;3.45;;;24.90;99.90;;;;;;5057352;28;20040;-72
2021/07/04 08:33:24;;;;;;;3.95;3.58;;;24.90;99.90;;;;;;5075846;28;20025;-72
2021/07/04 08:35:50;;;;;;;4.25;3.88;;;24.70;99.90;;;;;;5077033;28;20405;-71
2021/07/04 08:38:15;;;;;;;4.72;4.28;;;24.70;99.90;;;;;;5074569;28;20036;-73
2021/07/04 08:40:41;;;;;;;5.05;4.20;;;25.00;99.90;;;;;;5075026;28;20501;-72
2021/07/04 08:43:07;;;;;;;4.15;3.83;;;25.20;99.90;;;;;;5074695;28;20020;-72
2021/07/04 08:45:38;;;;;;;4.50;4.10;;;25.10;99.90;;;;;;5074417;28;20437;-71
2021/07/04 08:48:05;;;;;;;4.28;3.97;;;25.00;99.90;;;;;;5075521;28;20419;-73
2021/07/04 08:50:31;;;;;;;3.80;3.50;;;24.60;99.90;;;;;;5075017;28;20103;-73
2021/07/04 08:52:59;;;;;;;4.22;3.63;;;24.90;99.90;;;;;;5074759;28;20028;-72
2021/07/04 08:55:25;;;;;;;4.03;3.65;;;24.80;99.90;;;;;;5074729;28;20486;-71
2021/07/04 08:57:51;;;;;;;6.22;3.72;;;25.10;99.90;;;;;;5074463;28;20028;-71
2021/07/04 09:00:17;;;;;;;6.03;3.50;;;24.80;99.90;;;;;;5074619;28;20503;-72
2021/07/04 09:02:43;;;;;;;3.42;3.13;;;24.10;99.90;;;;;;5074440;28;20055;-73
2021/07/04 09:05:12;;;;;;;5.07;3.33;;;23.90;99.90;;;;;;5074265;28;20028;-71
2021/07/04 09:07:39;;;;;;;4.20;3.80;;;23.80;99.90;;;;;;5074199;28;20478;-72
2021/07/04 09:10:08;;;;;;;6.53;3.65;;;24.40;99.90;;;;;;5074429;28;20036;-73
2021/07/04 09:12:36;;;;;;;3.58;3.28;;;24.40;99.90;;;;;;5073826;28;20028;-73
2021/07/04 09:15:13;;;;;;;4.93;3.60;;;24.30;99.90;;;;;;5074272;28;20031;-71
2021/07/04 09:17:44;;;;;;;4.68;3.47;;;24.20;99.90;;;;;;5074087;28;20406;-72
2021/07/04 09:20:16;;;;;;;3.40;3.10;;;24.40;99.90;;;;;;5082503;28;20021;-72
2021/07/04 09:22:45;;;;;;;3.65;3.35;;;24.20;99.90;;;;;;5077629;28;20037;-73
2021/07/04 09:25:17;;;;;;;3.20;2.83;;;24.10;99.90;;;;;;5075844;28;20094;-72
2021/07/04 09:28:10;;;;;;;3.97;2.85;;;24.20;99.90;;;;;;5075571;28;20047;-73
2021/07/04 09:30:37;;;;;;;3.92;2.83;;;24.20;99.90;;;;;;5074378;28;20069;-71
2021/07/04 09:33:25;;;;;;;3.45;3.00;;;24.00;99.90;;;;;;5074267;28;20093;-72
2021/07/04 09:36:05;;;;;;;3.88;2.70;;;24.00;99.90;;;;;;5073975;28;20025;-71
2021/07/04 09:38:43;;;;;;;2.73;2.53;;;23.90;99.90;;;;;;5098100;22;20688;-77
2021/07/04 09:41:12;;;;;;;2.72;2.45;;;23.70;99.90;;;;;;5056840;28;20067;-81
2021/07/04 09:43:39;;;;;;;2.67;2.47;;;23.80;99.90;;;;;;5056473;28;20119;-77
2021/07/04 09:46:07;;;;;;;2.42;2.22;;;23.90;99.90;;;;;;5074654;28;20109;-78
2021/07/04 09:48:33;;;;;;;3.88;1.95;;;23.90;99.90;;;;;;5074402;28;20024;-77
2021/07/04 09:51:03;;;;;;;2.03;1.90;;;24.20;99.90;;;;;;5073868;28;20112;-77
2021/07/04 09:53:37;;;;;;;2.10;1.90;;;24.40;99.90;;;;;;5074426;28;20020;-77
2021/07/04 09:56:17;;;;;;;2.80;2.58;;;24.70;99.90;;;;;;5074587;28;20573;-78
2021/07/04 09:58:44;;;;;;;2.92;2.40;;;24.60;99.90;;;;;;5074360;28;20402;-78
2021/07/04 10:01:10;;;;;;;3.75;2.15;;;24.50;99.90;;;;;;5056804;28;20020;-77
2021/07/04 10:03:42;;;;;;;2.40;2.20;;;24.70;99.90;;;;;;5074463;28;20108;-78
2021/07/04 10:06:10;;;;;;;2.08;1.98;;;25.00;99.90;;;;;;5056868;28;20052;-79
2021/07/04 10:08:37;;;;;;;2.10;1.90;;;25.10;99.90;;;;;;5057034;28;20031;-78
2021/07/04 10:11:14;;;;;;;1.98;1.88;;;25.70;99.90;;;;;;5074722;28;20025;-78
2021/07/04 10:13:42;;;;;;;1.98;1.88;;;25.90;99.90;;;;;;5074811;28;20024;-79
2021/07/04 10:16:11;;;;;;;2.58;1.90;;;26.30;99.90;;;;;;5074170;28;20074;-76
2021/07/04 10:18:38;;;;;;;2.63;2.03;;;26.20;99.90;;;;;;5055903;28;20070;-77
2021/07/04 10:21:04;;;;;;;2.38;2.17;;;26.10;99.90;;;;;;5074408;28;20051;-78
2021/07/04 10:23:30;;;;;;;1.98;1.88;;;26.70;99.60;;;;;;5073826;28;20546;-78
2021/07/04 10:25:58;;;;;;;2.92;2.35;;;26.80;98.90;;;;;;5056323;28;20115;-77
2021/07/04 10:28:31;;;;;;;2.55;2.33;;;26.60;98.80;;;;;;5055755;28;20357;-79
2021/07/04 10:30:58;;;;;;;2.70;2.10;;;26.50;99.70;;;;;;5073836;28;20028;-78
2021/07/04 10:33:32;;;;;;;2.13;2.03;;;26.30;99.70;;;;;;5073868;28;20027;-79
2021/07/04 10:36:00;;;;;;;2.20;2.10;;;26.00;99.80;;;;;;5074530;28;20020;-79
2021/07/04 10:38:36;;;;;;;2.60;2.05;;;25.90;99.90;;;;;;5056217;28;20025;-77
2021/07/04 10:41:07;;;;;;;2.58;2.38;;;25.80;99.90;;;;;;5056061;28;20059;-79
2021/07/04 10:43:52;;;;;;;2.33;2.13;;;25.60;99.90;;;;;;5073879;28;20103;-78
2021/07/04 10:46:18;;;;;;;2.20;2.05;;;25.60;99.90;;;;;;5073278;28;20505;-79
2021/07/04 10:48:53;;;;;;;2.45;2.00;;;25.70;99.90;;;;;;5072693;28;20028;-77
2021/07/04 10:51:20;;;;;;;2.50;2.30;;;25.60;99.90;;;;;;5055109;28;20069;-78
2021/07/04 10:53:56;;;;;;;3.03;1.85;;;25.40;99.90;;;;;;5073546;28;20039;-81
2021/07/04 10:56:38;;;;;;;2.53;2.33;;;25.40;99.90;;;;;;5073542;28;20041;-77
2021/07/04 10:59:09;;;;;;;2.38;2.17;;;25.30;99.90;;;;;;5055284;28;20017;-77
2021/07/04 11:01:56;;;;;;;2.60;2.40;;;25.00;99.90;;;;;;5055882;28;20032;-77
2021/07/04 11:04:28;;;;;;;1.95;1.85;;;25.20;99.90;;;;;;5055657;28;20145;-77
2021/07/04 11:07:03;;;;;;;3.40;2.50;;;25.10;99.90;;;;;;5073703;28;20088;-78
2021/07/04 11:09:51;;;;;;;2.53;2.10;;;24.90;99.90;;;;;;5056051;28;20031;-77
2021/07/04 11:12:28;;;;;;;2.30;2.10;;;24.80;99.90;;;;;;5079221;28;20020;-75
2021/07/04 11:15:12;;;;;;;4.22;2.13;;;24.80;99.90;;;;;;5091199;28;20021;-77
2021/07/04 11:18:00;;;;;;;2.83;2.47;;;24.90;99.90;;;;;;5056581;28;20040;-76
2021/07/04 11:20:30;;;;;;;2.45;2.25;;;24.70;99.90;;;;;;5073723;28;20020;-78
2021/07/04 11:23:02;;;;;;;2.20;2.00;;;24.70;99.90;;;;;;5073470;28;20110;-78
2021/07/04 11:25:43;;;;;;;2.78;2.58;;;24.80;99.90;;;;;;5073745;28;20033;-79
2021/07/04 11:28:15;;;;;;;2.47;2.28;;;25.00;99.90;;;;;;5074066;28;20025;-78
2021/07/04 11:30:40;;;;;;;2.72;2.53;;;25.20;99.90;;;;;;5056142;28;20036;-78
2021/07/04 11:33:44;;;;;;;2.53;2.33;;;25.30;99.90;;;;;;5079255;28;20009;-76
2021/07/04 11:36:27;;;;;;;3.30;2.17;;;25.60;99.90;;;;;;5078058;28;20035;-77
2021/07/04 11:39:00;;;;;;;3.03;2.83;;;25.90;99.90;;;;;;5058237;28;20032;-76
2021/07/04 11:41:29;;;;;;;2.50;2.30;;;26.10;99.90;;;;;;5060493;28;20024;-79
2021/07/04 11:43:59;;;;;;;2.55;2.22;;;25.90;99.80;;;;;;5059465;28;20025;-78
2021/07/04 11:46:27;;;;;;;2.97;2.72;;;25.70;99.90;;;;;;5076784;28;20044;-77
2021/07/04 11:49:04;;;;;;;2.33;2.13;;;26.00;99.90;;;;;;5058907;28;20028;-78
2021/07/04 11:51:54;;;;;;;2.75;2.50;;;25.60;99.80;;;;;;5058478;28;20021;-79
2021/07/04 11:54:28;;;;;;;2.97;1.83;;;25.70;99.60;;;;;;5046912;28;20043;-77
2021/07/04 11:59:59;;;;;;;2.63;2.42;;;25.60;99.30;;;;;;5077779;28;20086;-78
2021/07/04 12:02:25;;;;;;;2.40;2.20;;;25.70;99.90;;;;;;5058281;28;20078;-79
2021/07/04 12:04:52;;;;;;;2.75;2.55;;;25.40;99.60;;;;;;5076044;28;20512;-77
2021/07/04 12:07:22;;;;;;;3.38;2.45;;;25.30;99.90;;;;;;5076664;28;20029;-78
2021/07/04 12:09:52;;;;;;;2.33;2.20;;;25.00;99.90;;;;;;5058744;28;20040;-79
2021/07/04 12:12:35;;;;;;;3.15;2.70;;;25.00;99.90;;;;;;5076832;28;20632;-78
2021/07/04 12:15:08;;;;;;;3.00;2.70;;;25.00;99.90;;;;;;5059304;28;20599;-80
2021/07/04 12:17:42;;;;;;;2.63;2.42;;;25.00;99.90;;;;;;5058777;28;20055;-78
2021/07/04 12:20:17;;;;;;;2.80;2.60;;;24.90;99.90;;;;;;5058195;28;20032;-77
2021/07/04 12:22:48;;;;;;;3.75;3.15;;;24.70;99.90;;;;;;5058749;28;20020;-77
2021/07/04 12:25:13;;;;;;;;;;;24.90;99.90;;;;;;5058925;28;20055;-78
2021/07/04 12:27:59;;;;;;;3.55;3.17;;;24.70;99.90;;;;;;5057939;28;19909;-77
2021/07/04 12:30:45;;;;;;;3.15;2.95;;;24.60;99.90;;;;;;5076318;28;20081;-77
2021/07/04 12:33:12;;;;;;;3.00;2.80;;;24.60;99.90;;;;;;5076704;28;20036;-78
2021/07/04 12:35:50;;;;;;;3.05;2.75;;;24.60;99.90;;;;;;5075963;28;20035;-78
2021/07/04 12:38:25;;;;;;;3.53;3.22;;;25.30;99.90;;;;;;5076168;28;20059;-78
2021/07/04 12:40:50;;;;;;;4.10;3.45;;;25.20;99.90;;;;;;5057258;28;20020;-77
2021/07/04 12:43:19;;;;;;;3.35;3.10;;;25.00;99.90;;;;;;5075493;28;20444;-79
2021/07/04 12:45:50;;;;;;;3.28;3.08;;;25.10;99.90;;;;;;5074763;28;20059;-79
2021/07/04 12:48:18;;;;;;;5.25;2.88;;;25.20;99.90;;;;;;5074823;28;20024;-78
2021/07/04 12:50:43;;;;;;;3.25;2.95;;;25.20;99.90;;;;;;5057551;28;20514;-77
2021/07/04 12:53:10;;;;;;;4.63;2.92;;;25.70;99.90;;;;;;5057761;28;20029;-78
2021/07/04 12:55:45;;;;;;;3.20;2.90;;;25.80;99.90;;;;;;5057546;28;20446;-77
2021/07/04 12:58:25;;;;;;;3.38;2.83;;;26.20;99.90;;;;;;5057407;28;20033;-77